createdAt,value
2022-08-17T00:00:42.664Z,1.10
2022-08-17T00:03:42.888Z,1.23
2022-08-17T00:06:44.682Z,1.35
2022-08-17T00:09:47.597Z,1.20
2022-08-17T00:12:49.444Z,1.20
2022-08-17T00:15:52.703Z,1.05
2022-08-17T00:19:06.712Z,1.08
2022-08-17T00:22:31.864Z,1.05
2022-08-17T00:25:31.504Z,1.23
2022-08-17T00:28:33.364Z,1.27
2022-08-17T00:31:36.234Z,1.30
2022-08-17T00:34:38.341Z,1.33
2022-08-17T00:37:40.349Z,1.30
2022-08-17T00:40:48.213Z,1.30
2022-08-17T00:43:51.078Z,1.35
2022-08-17T00:46:52.567Z,1.17
2022-08-17T00:49:54.103Z,0.98
2022-08-17T00:52:57.672Z,0.98
2022-08-17T00:56:01.588Z,1.05
2022-08-17T00:59:05.380Z,1.27
2022-08-17T01:02:09.832Z,1.20
2022-08-17T01:05:21.299Z,1.20
2022-08-17T01:08:25.992Z,1.15
2022-08-17T01:11:30.374Z,1.10
2022-08-17T01:14:32.218Z,1.10
2022-08-17T01:17:34.265Z,1.00
2022-08-17T01:20:48.436Z,1.20
2022-08-17T01:23:50.549Z,1.33
2022-08-17T01:26:52.038Z,1.23
2022-08-17T01:29:58.652Z,1.80
2022-08-17T01:33:00.143Z,1.40
2022-08-17T01:36:03.562Z,1.50
2022-08-17T01:39:09.361Z,1.67
2022-08-17T01:42:25.976Z,1.80
2022-08-17T01:45:32.018Z,1.65
2022-08-17T01:48:36.012Z,1.55
2022-08-17T01:51:37.665Z,1.77
2022-08-17T01:54:44.081Z,1.60
2022-08-17T01:57:45.612Z,1.60
2022-08-17T02:01:00.975Z,1.58
2022-08-17T02:04:05.607Z,1.60
2022-08-17T02:07:07.158Z,1.60
2022-08-17T02:10:18.966Z,2.22
2022-08-17T02:13:21.975Z,1.85
2022-08-17T02:16:23.446Z,2.03
2022-08-17T02:19:24.980Z,1.90
2022-08-17T02:22:27.436Z,1.70
2022-08-17T02:25:31.857Z,1.42
2022-08-17T02:28:33.442Z,1.80
2022-08-17T02:31:35.484Z,1.70
2022-08-17T02:34:37.510Z,1.65
2022-08-17T02:37:39.847Z,1.83
2022-08-17T02:40:41.392Z,1.70
2022-08-17T02:43:42.824Z,1.73
2022-08-17T02:46:44.270Z,1.70
2022-08-17T02:49:55.505Z,1.80
2022-08-17T02:53:02.345Z,1.92
2022-08-17T02:56:04.563Z,1.98
2022-08-17T02:59:06.008Z,1.83
2022-08-17T03:02:10.432Z,1.88
2022-08-17T03:05:14.081Z,1.98
2022-08-17T03:08:16.107Z,1.75
2022-08-17T03:11:17.641Z,2.10
2022-08-17T03:14:19.101Z,2.30
2022-08-17T03:17:27.410Z,2.25
2022-08-17T03:20:31.110Z,2.58
2022-08-17T03:23:33.598Z,2.17
2022-08-17T03:26:35.381Z,2.20
2022-08-17T03:29:36.804Z,2.17
2022-08-17T03:32:40.565Z,2.10
2022-08-17T03:35:42.050Z,2.28
2022-08-17T03:38:43.501Z,2.33
2022-08-17T03:41:46.581Z,1.90
2022-08-17T03:44:52.902Z,2.03
2022-08-17T03:48:17.671Z,2.10
2022-08-17T03:51:42.024Z,2.10
2022-08-17T03:55:03.597Z,2.00
2022-08-17T03:58:05.042Z,2.17
2022-08-17T04:01:07.165Z,2.05
2022-08-17T04:04:08.886Z,2.30
2022-08-17T04:07:10.641Z,2.13
2022-08-17T04:10:12.118Z,1.95
2022-08-17T04:13:13.959Z,2.00
2022-08-17T04:16:18.634Z,1.90
2022-08-17T04:19:20.040Z,2.05
2022-08-17T04:22:32.681Z,1.80
2022-08-17T04:25:37.435Z,1.88
2022-08-17T04:28:38.883Z,2.10
2022-08-17T04:31:40.317Z,2.20
2022-08-17T04:34:41.848Z,2.15
2022-08-17T04:37:43.281Z,2.00
2022-08-17T04:41:03.578Z,1.52
2022-08-17T04:44:05.195Z,1.60
2022-08-17T04:47:07.157Z,1.70
2022-08-17T04:50:12.124Z,2.00
2022-08-17T04:53:14.096Z,3.03
2022-08-17T04:56:18.127Z,3.03
2022-08-17T04:59:22.029Z,3.33
2022-08-17T05:02:23.606Z,2.60
2022-08-17T05:05:32.075Z,3.50
2022-08-17T05:08:33.923Z,2.80
2022-08-17T05:11:36.249Z,3.25
2022-08-17T05:14:39.433Z,3.00
2022-08-17T05:17:40.881Z,3.40
2022-08-17T05:20:42.735Z,3.03
2022-08-17T05:23:45.485Z,2.92
2022-08-17T05:26:54.107Z,2.72
2022-08-17T05:29:57.110Z,2.78
2022-08-17T05:33:21.503Z,2.97
2022-08-17T05:36:43.124Z,2.78
2022-08-17T05:39:44.571Z,2.45
2022-08-17T05:42:46.852Z,2.90
2022-08-17T05:46:15.760Z,2.65
2022-08-17T05:52:23.890Z,2.63
2022-08-17T05:55:34.182Z,2.70
2022-08-17T05:58:48.222Z,2.63
2022-08-17T06:01:55.544Z,2.92
2022-08-17T06:05:26.383Z,2.88
2022-08-17T06:09:00.673Z,2.72
2022-08-17T06:12:34.175Z,3.20
2022-08-17T06:15:52.753Z,3.10
2022-08-17T06:19:11.526Z,3.80
2022-08-17T06:22:15.458Z,3.70
2022-08-17T06:25:32.064Z,2.95
2022-08-17T06:28:47.167Z,3.33
2022-08-17T06:31:48.873Z,3.85
2022-08-17T06:34:52.159Z,3.10
2022-08-17T06:38:05.723Z,2.50
2022-08-17T06:41:36.507Z,3.05
2022-08-17T06:44:56.258Z,2.95
2022-08-17T06:48:25.443Z,2.83
2022-08-17T06:51:36.121Z,3.00
2022-08-17T06:55:03.369Z,2.58
2022-08-17T06:58:16.394Z,2.35
2022-08-17T07:01:23.123Z,2.60
2022-08-17T07:04:31.180Z,2.30
2022-08-17T07:07:56.639Z,2.42
2022-08-17T07:11:04.893Z,1.90
2022-08-17T07:14:39.389Z,1.95
2022-08-17T07:17:47.491Z,2.30
2022-08-17T07:20:55.921Z,2.47
2022-08-17T07:24:08.496Z,2.90
2022-08-17T07:27:23.574Z,2.70
2022-08-17T07:30:29.433Z,2.97
2022-08-17T07:33:34.934Z,2.72
2022-08-17T07:36:36.552Z,2.42
2022-08-17T07:39:59.650Z,2.60
2022-08-17T07:43:13.048Z,2.20
2022-08-17T07:46:50.175Z,3.15
2022-08-17T07:49:51.747Z,2.85
2022-08-17T07:52:53.416Z,3.25
2022-08-17T07:55:55.016Z,3.28
2022-08-17T07:59:08.543Z,3.20
2022-08-17T08:02:40.153Z,2.83
2022-08-17T08:06:00.233Z,2.85
2022-08-17T08:09:01.823Z,2.75
2022-08-17T08:12:22.142Z,2.90
2022-08-17T08:15:35.001Z,2.83
2022-08-17T08:18:55.741Z,2.78
2022-08-17T08:22:06.111Z,2.17
2022-08-17T08:25:24.281Z,2.00
2022-08-17T08:28:47.011Z,2.00
2022-08-17T08:32:20.433Z,2.03
2022-08-17T08:35:42.310Z,2.03
2022-08-17T08:38:53.739Z,1.98
2022-08-17T08:42:07.625Z,2.10
2022-08-17T08:45:20.250Z,2.03
2022-08-17T08:48:56.396Z,1.70
2022-08-17T08:52:00.280Z,2.15
2022-08-17T08:55:28.781Z,2.03
2022-08-17T08:59:05.671Z,2.42
2022-08-17T09:02:28.879Z,1.75
2022-08-17T09:06:03.598Z,1.85
2022-08-17T09:09:24.339Z,1.65
2022-08-17T09:12:34.825Z,2.03
2022-08-17T09:15:44.661Z,1.83
2022-08-17T09:18:59.793Z,1.90
2022-08-17T09:22:17.535Z,2.00
2022-08-17T09:25:23.338Z,1.83
2022-08-17T09:28:39.625Z,1.90
2022-08-17T09:31:53.350Z,1.40
2022-08-17T09:35:01.443Z,1.63
2022-08-17T09:38:19.291Z,1.58
2022-08-17T09:41:48.732Z,2.17
2022-08-17T09:45:35.290Z,1.48
2022-08-17T09:48:46.976Z,1.75
2022-08-17T09:51:54.691Z,1.60
2022-08-17T09:54:58.949Z,1.98
2022-08-17T09:58:18.760Z,2.22
2022-08-17T10:01:39.785Z,1.70
2022-08-17T10:04:54.269Z,1.90
2022-08-17T10:07:56.083Z,2.10
2022-08-17T10:11:51.616Z,1.90
2022-08-17T10:15:07.772Z,1.98
2022-08-17T10:18:40.453Z,2.40
2022-08-17T10:22:32.730Z,1.92
2022-08-17T10:26:00.783Z,1.98
2022-08-17T10:29:15.633Z,1.70
2022-08-17T10:32:41.410Z,2.05
2022-08-17T10:36:02.063Z,1.67
2022-08-17T10:39:17.235Z,2.20
2022-08-17T10:42:32.505Z,2.10
2022-08-17T10:45:47.043Z,2.33
2022-08-17T10:49:23.550Z,2.03
2022-08-17T10:52:28.075Z,2.03
2022-08-17T10:55:30.297Z,2.30
2022-08-17T10:58:45.632Z,2.40
2022-08-17T11:01:47.088Z,2.70
2022-08-17T11:05:00.484Z,2.60
2022-08-17T11:08:22.939Z,2.63
2022-08-17T11:11:56.544Z,2.60
2022-08-17T11:15:19.644Z,2.60
2022-08-17T11:18:33.871Z,2.25
2022-08-17T11:22:12.885Z,2.45
2022-08-17T11:25:20.426Z,2.40
2022-08-17T11:28:28.850Z,2.45
2022-08-17T11:31:38.280Z,2.80
2022-08-17T11:34:44.512Z,2.13
2022-08-17T11:38:17.045Z,2.05
2022-08-17T11:41:29.070Z,1.90
2022-08-17T11:44:39.520Z,1.90
2022-08-17T11:48:27.385Z,1.92
2022-08-17T11:52:04.944Z,1.70
2022-08-17T11:55:33.989Z,1.42
2022-08-17T11:58:37.623Z,1.52
2022-08-17T12:01:58.025Z,1.58
2022-08-17T12:05:14.655Z,1.92
2022-08-17T12:08:21.478Z,1.75
2022-08-17T12:12:11.677Z,1.98
2022-08-17T12:15:10.528Z,1.83
2022-08-17T12:18:19.823Z,1.83
2022-08-17T12:21:53.785Z,1.55
2022-08-17T12:25:10.803Z,1.73
2022-08-17T12:28:29.863Z,2.00
2022-08-17T12:31:36.682Z,2.00
2022-08-17T12:34:43.248Z,2.00
2022-08-17T12:37:48.736Z,1.85
2022-08-17T12:40:58.406Z,1.80
2022-08-17T12:44:05.075Z,1.55
2022-08-17T12:47:21.809Z,1.80
2022-08-17T12:50:29.703Z,1.73
2022-08-17T12:53:35.113Z,1.70
2022-08-17T12:56:36.633Z,1.70
2022-08-17T12:59:42.871Z,1.70
2022-08-17T13:02:50.865Z,1.83
2022-08-17T13:05:52.296Z,1.63
2022-08-17T13:08:53.763Z,1.80
2022-08-17T13:12:00.774Z,1.80
2022-08-17T13:15:02.456Z,1.95
2022-08-17T13:18:24.967Z,1.85
2022-08-17T13:21:30.400Z,1.67
2022-08-17T13:24:38.022Z,1.90
2022-08-17T13:27:42.521Z,1.80
2022-08-17T13:30:44.356Z,1.65
2022-08-17T13:33:45.877Z,1.55
2022-08-17T13:36:47.895Z,1.50
2022-08-17T13:40:12.338Z,1.52
2022-08-17T13:43:38.161Z,1.60
2022-08-17T13:46:39.703Z,1.60
2022-08-17T13:49:48.899Z,1.77
2022-08-17T13:52:52.195Z,1.52
2022-08-17T13:55:58.247Z,1.60
2022-08-17T13:59:53.326Z,1.73
2022-08-17T14:02:55.365Z,1.30
2022-08-17T14:06:07.514Z,1.30
2022-08-17T14:09:09.068Z,1.52
2022-08-17T14:12:15.331Z,1.45
2022-08-17T14:15:20.777Z,1.13
2022-08-17T14:18:55.243Z,1.60
2022-08-17T14:21:46.122Z,1.48
2022-08-17T14:24:47.776Z,1.30
2022-08-17T14:27:53.652Z,1.55
2022-08-17T14:30:55.514Z,1.30
2022-08-17T14:33:58.872Z,1.10
2022-08-17T14:37:00.291Z,1.50
2022-08-17T14:40:05.971Z,1.40
2022-08-17T14:43:07.443Z,1.30
2022-08-17T14:46:08.886Z,1.60
2022-08-17T14:49:12.764Z,1.55
2022-08-17T14:55:21.075Z,1.30
2022-08-17T14:58:23.517Z,1.60
2022-08-17T15:01:26.548Z,1.02
2022-08-17T15:04:28.189Z,1.42
2022-08-17T15:07:30.822Z,1.35
2022-08-17T15:10:33.352Z,1.40
2022-08-17T15:13:35.704Z,1.48
2022-08-17T15:16:54.598Z,1.40
2022-08-17T15:19:56.052Z,1.67
2022-08-17T15:22:58.882Z,1.40
2022-08-17T15:26:00.513Z,1.38
2022-08-17T15:29:01.984Z,1.30
2022-08-17T15:32:03.843Z,1.38
2022-08-17T15:35:07.281Z,1.38
2022-08-17T15:38:12.076Z,1.52
2022-08-17T15:41:18.079Z,1.50
2022-08-17T15:44:19.557Z,1.30
2022-08-17T15:47:22.864Z,1.50
2022-08-17T15:50:26.483Z,1.40
2022-08-17T15:53:27.895Z,1.30
2022-08-17T15:56:31.258Z,1.40
2022-08-17T15:59:34.843Z,1.45
2022-08-17T16:03:45.549Z,1.70
2022-08-17T16:06:00.215Z,1.40
2022-08-17T16:09:02.262Z,1.25
2022-08-17T16:12:16.569Z,1.38
2022-08-17T16:15:18.374Z,1.48
2022-08-17T16:18:20.521Z,1.70
2022-08-17T16:21:31.140Z,1.50
2022-08-17T16:28:00.349Z,1.30
2022-08-17T16:31:01.947Z,1.35
2022-08-17T16:34:16.912Z,1.10
2022-08-17T16:37:20.033Z,1.13
2022-08-17T16:40:23.698Z,1.33
2022-08-17T16:43:25.641Z,1.50
2022-08-17T16:46:29.212Z,1.42
2022-08-17T16:49:37.046Z,1.55
2022-08-17T16:52:40.262Z,1.73
2022-08-17T16:55:42.443Z,1.23
2022-08-17T16:58:43.989Z,1.60
2022-08-17T17:01:45.466Z,1.48
2022-08-17T17:04:56.141Z,1.52
2022-08-17T17:08:12.598Z,1.80
2022-08-17T17:11:21.600Z,1.33
2022-08-17T17:14:39.171Z,1.70
2022-08-17T17:17:42.606Z,1.48
2022-08-17T17:20:55.989Z,1.55
2022-08-17T17:24:03.008Z,1.40
2022-08-17T17:27:32.307Z,1.35
2022-08-17T17:31:02.030Z,1.70
2022-08-17T17:34:06.477Z,1.40
2022-08-17T17:37:15.477Z,1.35
2022-08-17T17:40:25.343Z,1.45
2022-08-17T17:43:38.823Z,1.48
2022-08-17T17:46:50.515Z,1.52
2022-08-17T17:49:52.203Z,1.55
2022-08-17T17:53:02.080Z,1.38
2022-08-17T17:56:18.824Z,1.55
2022-08-17T17:59:51.332Z,1.50
2022-08-17T18:03:38.192Z,1.23
2022-08-17T18:07:25.252Z,1.45
2022-08-17T18:10:33.798Z,1.33
2022-08-17T18:13:41.457Z,1.55
2022-08-17T18:16:43.779Z,1.30
2022-08-17T18:19:45.299Z,1.10
2022-08-17T18:22:46.826Z,1.83
2022-08-17T18:25:50.135Z,1.10
2022-08-17T18:28:51.798Z,1.33
2022-08-17T18:32:18.190Z,1.63
2022-08-17T18:35:19.616Z,1.40
2022-08-17T18:38:33.822Z,1.60
2022-08-17T18:41:41.738Z,1.35
2022-08-17T18:44:44.102Z,1.50
2022-08-17T18:47:54.779Z,1.58
2022-08-17T18:51:00.346Z,1.58
2022-08-17T18:54:21.764Z,1.50
2022-08-17T18:57:32.695Z,1.35
2022-08-17T19:00:36.823Z,1.38
2022-08-17T19:03:42.522Z,1.52
2022-08-17T19:06:44.027Z,1.63
2022-08-17T19:09:55.629Z,1.42
2022-08-17T19:13:00.826Z,1.65
2022-08-17T19:16:20.836Z,1.50
2022-08-17T19:19:30.444Z,1.40
2022-08-17T19:22:54.579Z,1.70
2022-08-17T19:26:01.678Z,1.48
2022-08-17T19:29:12.735Z,1.70
2022-08-17T19:32:22.031Z,1.35
2022-08-17T19:35:36.150Z,1.38
2022-08-17T19:38:56.798Z,1.45
2022-08-17T19:42:30.960Z,1.40
2022-08-17T19:45:56.136Z,1.50
2022-08-17T19:49:17.035Z,1.50
2022-08-17T19:52:24.711Z,1.58
2022-08-17T19:55:50.963Z,1.70
2022-08-17T19:59:48.188Z,1.40
2022-08-17T20:03:16.555Z,1.35
2022-08-17T20:06:21.057Z,1.73
2022-08-17T20:12:29.071Z,1.60
2022-08-17T20:15:34.963Z,1.63
2022-08-17T20:18:47.505Z,1.75
2022-08-17T20:22:00.515Z,1.70
2022-08-17T20:25:16.779Z,1.35
2022-08-17T20:28:39.106Z,1.65
2022-08-17T20:31:55.937Z,1.70
2022-08-17T20:35:09.473Z,1.70
2022-08-17T20:38:33.163Z,1.55
2022-08-17T20:42:13.189Z,1.80
2022-08-17T20:45:20.881Z,1.60
2022-08-17T20:48:38.075Z,1.92
2022-08-17T20:52:01.202Z,1.70
2022-08-17T20:55:04.902Z,1.73
2022-08-17T20:58:15.811Z,1.80
2022-08-17T21:01:24.446Z,1.52
2022-08-17T21:04:56.490Z,1.65
2022-08-17T21:08:21.070Z,1.60
2022-08-17T21:12:00.000Z,1.83
2022-08-17T21:15:03.362Z,1.30
2022-08-17T21:18:25.901Z,1.52
2022-08-17T21:21:42.749Z,1.80
2022-08-17T21:25:02.750Z,1.58
2022-08-17T21:28:17.464Z,1.77
2022-08-17T21:31:35.168Z,2.10
2022-08-17T21:35:04.272Z,1.70
2022-08-17T21:38:14.643Z,1.50
2022-08-17T21:41:22.345Z,1.88
2022-08-17T21:44:42.160Z,1.40
2022-08-17T21:47:48.977Z,1.70
2022-08-17T21:50:57.456Z,1.90
2022-08-17T21:54:03.086Z,1.70
2022-08-17T21:57:14.662Z,1.50
2022-08-17T22:00:27.391Z,1.80
2022-08-17T22:03:31.453Z,1.70
2022-08-17T22:06:41.198Z,1.80
2022-08-17T22:09:46.183Z,1.80
2022-08-17T22:13:03.516Z,1.63
2022-08-17T22:16:28.866Z,1.50
2022-08-17T22:19:31.438Z,1.55
2022-08-17T22:22:59.743Z,1.73
2022-08-17T22:26:04.801Z,1.50
2022-08-17T22:29:06.362Z,1.25
2022-08-17T22:32:07.737Z,2.03
2022-08-17T22:35:32.571Z,1.73
2022-08-17T22:38:34.292Z,2.00
2022-08-17T22:41:54.250Z,1.58
2022-08-17T22:44:55.718Z,1.75
2022-08-17T22:48:00.203Z,1.45
2022-08-17T22:51:13.411Z,2.10
2022-08-17T22:54:37.512Z,1.67
2022-08-17T22:58:04.484Z,2.00
2022-08-17T23:01:25.789Z,1.67
2022-08-17T23:04:37.793Z,1.55
2022-08-17T23:07:44.704Z,1.60
2022-08-17T23:10:47.028Z,1.52
2022-08-17T23:13:48.515Z,1.55
2022-08-17T23:16:50.869Z,1.90
2022-08-17T23:19:53.034Z,1.50
2022-08-17T23:22:54.567Z,1.40
2022-08-17T23:25:56.081Z,1.70
2022-08-17T23:28:57.632Z,1.60
2022-08-17T23:32:01.294Z,1.70
2022-08-17T23:35:02.815Z,1.73
2022-08-17T23:38:07.443Z,1.65
2022-08-17T23:41:12.356Z,1.67
2022-08-17T23:44:14.738Z,1.90
2022-08-17T23:47:16.287Z,2.08
2022-08-17T23:50:18.374Z,2.20
2022-08-17T23:53:20.572Z,2.40
2022-08-17T23:56:27.961Z,2.47
2022-08-17T23:59:29.515Z,2.20
